Wetterdaten: Woche 11.12.23 - 17.12.23 (KW50)
Datum Zeit Temp. A. Feuchte A. Luftdruck Regen Wind Richtung Taupunkt Windchill
11.12.2023 00:00 5,5 C 90 % 1006 hPa 0,0 l/m 1,1 km/h (0 Bft) W-NW 4,0 C 5,4 C
11.12.2023 01:00 6,1 C 91 % 1006 hPa 0,0 l/m 0,2 km/h (0 Bft) W 4,7 C 6,1 C
11.12.2023 02:00 6,5 C 90 % 1006 hPa 0,0 l/m 1,1 km/h (0 Bft) SW 5,0 C 6,3 C
11.12.2023 03:00 6,4 C 89 % 1006 hPa 0,0 l/m 0,0 km/h (0 Bft) SW 4,7 C 6,4 C
11.12.2023 04:00 6,3 C 90 % 1006 hPa 0,0 l/m 1,4 km/h (1 Bft) W-SW 4,7 C 6,0 C
11.12.2023 05:00 6,2 C 89 % 1006 hPa 0,0 l/m 0,6 km/h (0 Bft) W 4,5 C 6,2 C
11.12.2023 06:00 6,3 C 89 % 1006 hPa 0,0 l/m 0,7 km/h (0 Bft) W 4,6 C 6,2 C
11.12.2023 07:00 6,5 C 89 % 1006 hPa 0,0 l/m 0,5 km/h (0 Bft) W 4,8 C 6,5 C
11.12.2023 08:00 6,9 C 88 % 1006 hPa 0,0 l/m 0,0 km/h (0 Bft) SW 5,1 C 6,9 C
11.12.2023 09:00 7,7 C 87 % 1005 hPa 0,0 l/m 1,4 km/h (1 Bft) SW 5,7 C 7,4 C
11.12.2023 10:00 8,9 C 84 % 1005 hPa 0,0 l/m 2,3 km/h (1 Bft) SW 6,4 C 8,5 C
11.12.2023 11:00 9,1 C 84 % 1005 hPa 0,0 l/m 0,3 km/h (0 Bft) W-NW 6,4 C 9,1 C
11.12.2023 12:00 8,7 C 86 % 1005 hPa 0,0 l/m 0,5 km/h (0 Bft) W 6,5 C 8,7 C
11.12.2023 13:00 9,6 C 83 % 1004 hPa 0,0 l/m 3,3 km/h (1 Bft) W 6,9 C 9,4 C
11.12.2023 14:00 9,9 C 79 % 1004 hPa 0,0 l/m 1,0 km/h (0 Bft) W 6,5 C 9,9 C
11.12.2023 15:00 9,8 C 78 % 1005 hPa 0,0 l/m 6,7 km/h (2 Bft) W 6,1 C 8,3 C
11.12.2023 16:00 8,8 C 80 % 1006 hPa 0,0 l/m 4,5 km/h (1 Bft) W-NW 5,7 C 7,8 C
11.12.2023 17:00 8,7 C 81 % 1007 hPa 0,0 l/m 4,2 km/h (1 Bft) W-NW 5,7 C 8,1 C
11.12.2023 18:00 8,3 C 82 % 1008 hPa 0,0 l/m 4,6 km/h (1 Bft) W-NW 5,4 C 7,8 C
11.12.2023 19:00 7,9 C 84 % 1008 hPa 0,0 l/m 4,1 km/h (1 Bft) W-NW 5,3 C 7,0 C
11.12.2023 20:00 7,8 C 83 % 1009 hPa 0,0 l/m 6,0 km/h (2 Bft) W-NW 5,1 C 6,5 C
11.12.2023 21:00 7,4 C 85 % 1011 hPa 0,0 l/m 0,8 km/h (0 Bft) W-NW 5,0 C 7,4 C
11.12.2023 22:00 7,4 C 84 % 1012 hPa 0,0 l/m 2,5 km/h (1 Bft) W-NW 4,9 C 7,0 C
11.12.2023 23:00 6,9 C 85 % 1012 hPa 0,0 l/m 0,7 km/h (0 Bft) W-NW 4,5 C 6,9 C
12.12.2023 00:00 6,2 C 87 % 1012 hPa 0,0 l/m 0,0 km/h (0 Bft) W-NW 4,1 C 6,2 C
12.12.2023 01:00 6,1 C 88 % 1013 hPa 0,0 l/m 0,9 km/h (0 Bft) W-NW 4,3 C 5,8 C
12.12.2023 02:00 6,5 C 87 % 1013 hPa 0,0 l/m 0,0 km/h (0 Bft) W-NW 4,5 C 6,5 C
12.12.2023 03:00 6,7 C 87 % 1013 hPa 0,0 l/m 0,0 km/h (0 Bft) W-NW 4,7 C 6,7 C
12.12.2023 04:00 6,8 C 86 % 1013 hPa 0,0 l/m 0,0 km/h (0 Bft) W-NW 4,6 C 6,8 C
12.12.2023 05:00 6,2 C 87 % 1013 hPa 0,0 l/m 0,0 km/h (0 Bft) W 4,2 C 6,2 C
12.12.2023 06:00 5,7 C 88 % 1014 hPa 0,0 l/m 0,0 km/h (0 Bft) W 3,8 C 5,7 C
12.12.2023 07:00 5,4 C 89 % 1014 hPa 0,0 l/m 0,0 km/h (0 Bft) W 3,7 C 5,4 C
12.12.2023 08:00 5,4 C 89 % 1014 hPa 0,0 l/m 0,0 km/h (0 Bft) S 3,7 C 5,4 C
12.12.2023 09:00 5,8 C 89 % 1014 hPa 0,0 l/m 0,0 km/h (0 Bft) SW 4,2 C 5,8 C
12.12.2023 10:00 6,8 C 88 % 1013 hPa 0,0 l/m 0,0 km/h (0 Bft) S-SW 4,9 C 6,8 C
12.12.2023 11:00 7,3 C 86 % 1013 hPa 0,0 l/m 0,0 km/h (0 Bft) W-SW 5,1 C 7,3 C
12.12.2023 12:00 7,6 C 84 % 1012 hPa 0,0 l/m 0,0 km/h (0 Bft) SW 5,2 C 7,6 C
12.12.2023 13:00 8,8 C 83 % 1012 hPa 0,0 l/m 0,5 km/h (0 Bft) S-SO 6,0 C 8,8 C
12.12.2023 14:00 8,9 C 81 % 1011 hPa 0,0 l/m 0,0 km/h (0 Bft) S-SO 5,8 C 8,9 C
12.12.2023 15:00 8,7 C 81 % 1011 hPa 0,0 l/m 0,0 km/h (0 Bft) S-SO 5,5 C 8,7 C
12.12.2023 16:00 7,3 C 82 % 1010 hPa 0,0 l/m 0,0 km/h (0 Bft) O-SO 4,4 C 7,3 C
12.12.2023 17:00 6,9 C 83 % 1009 hPa 0,0 l/m 0,0 km/h (0 Bft) O-SO 4,2 C 6,9 C
12.12.2023 18:00 6,9 C 85 % 1008 hPa 0,0 l/m 0,0 km/h (0 Bft) O-SO 4,5 C 6,9 C
12.12.2023 19:00 6,6 C 86 % 1008 hPa 0,0 l/m 0,0 km/h (0 Bft) O-SO 4,4 C 6,6 C
12.12.2023 20:00 6,3 C 88 % 1007 hPa 0,0 l/m 0,0 km/h (0 Bft) O-SO 4,4 C 6,3 C
12.12.2023 21:00 6,4 C 89 % 1007 hPa 0,0 l/m 0,0 km/h (0 Bft) SO 4,7 C 6,4 C
12.12.2023 22:00 6,4 C 89 % 1006 hPa 0,5 l/m 0,0 km/h (0 Bft) SO 4,7 C 6,4 C
12.12.2023 23:00 6,5 C 90 % 1005 hPa 0,0 l/m 0,0 km/h (0 Bft) O-SO 5,0 C 6,5 C
13.12.2023 00:00 6,9 C 91 % 1005 hPa 0,0 l/m 0,0 km/h (0 Bft) O-SO 5,5 C 6,9 C
13.12.2023 01:00 7,0 C 91 % 1004 hPa 0,0 l/m 0,0 km/h (0 Bft) O-SO 5,6 C 7,0 C
13.12.2023 02:00 7,0 C 92 % 1004 hPa 1,0 l/m 0,0 km/h (0 Bft) S 5,7 C 7,0 C
13.12.2023 03:00 6,8 C 92 % 1004 hPa 0,0 l/m 0,0 km/h (0 Bft) W 5,6 C 6,8 C
13.12.2023 04:00 6,3 C 92 % 1004 hPa 0,0 l/m 0,0 km/h (0 Bft) S-SW 5,1 C 6,3 C
13.12.2023 05:00 6,0 C 92 % 1004 hPa 0,0 l/m 0,0 km/h (0 Bft) S-SW 4,8 C 6,0 C
13.12.2023 06:00 6,1 C 92 % 1004 hPa 0,0 l/m 0,0 km/h (0 Bft) W-NW 4,9 C 6,1 C
13.12.2023 07:00 5,7 C 93 % 1004 hPa 0,0 l/m 0,0 km/h (0 Bft) NW 4,7 C 5,7 C
13.12.2023 08:00 5,8 C 93 % 1004 hPa 0,0 l/m 0,0 km/h (0 Bft) NW 4,7 C 5,8 C
13.12.2023 09:00 5,4 C 93 % 1004 hPa 0,0 l/m 0,0 km/h (0 Bft) SW 4,4 C 5,4 C
13.12.2023 10:00 6,7 C 93 % 1004 hPa 0,0 l/m 0,0 km/h (0 Bft) SO 5,7 C 6,7 C
13.12.2023 11:00 8,7 C 93 % 1004 hPa 0,0 l/m 0,0 km/h (0 Bft) S-SW 7,7 C 8,7 C
13.12.2023 12:00 8,8 C 92 % 1004 hPa 0,0 l/m 0,0 km/h (0 Bft) S-SW 7,6 C 8,8 C
13.12.2023 13:00 9,3 C 92 % 1004 hPa 0,0 l/m 0,0 km/h (0 Bft) O-SO 8,0 C 9,3 C
13.12.2023 14:00 9,3 C 91 % 1004 hPa 0,0 l/m 0,0 km/h (0 Bft) S-SO 7,9 C 9,3 C
13.12.2023 15:00 9,1 C 90 % 1004 hPa 0,0 l/m 0,0 km/h (0 Bft) S-SO 7,6 C 9,1 C
13.12.2023 16:00 8,4 C 90 % 1005 hPa 0,0 l/m 0,0 km/h (0 Bft) S-SO 6,9 C 8,4 C
13.12.2023 17:00 7,9 C 89 % 1005 hPa 0,0 l/m 0,0 km/h (0 Bft) S-SO 6,2 C 7,9 C
13.12.2023 18:00 7,4 C 89 % 1005 hPa 0,0 l/m 0,0 km/h (0 Bft) S-SO 5,7 C 7,4 C
13.12.2023 19:00 6,4 C 90 % 1006 hPa 0,0 l/m 0,0 km/h (0 Bft) S-SO 4,8 C 6,4 C
13.12.2023 20:00 6,3 C 90 % 1006 hPa 0,0 l/m 0,0 km/h (0 Bft) S-SO 4,8 C 6,3 C
13.12.2023 21:00 5,9 C 91 % 1007 hPa 0,0 l/m 0,0 km/h (0 Bft) S-SO 4,5 C 5,9 C
13.12.2023 22:00 5,6 C 91 % 1008 hPa 0,0 l/m 0,0 km/h (0 Bft) S-SO 4,3 C 5,6 C
13.12.2023 23:00 5,4 C 91 % 1008 hPa 0,0 l/m 0,0 km/h (0 Bft) S-SO 4,0 C 5,4 C
14.12.2023 00:00 5,3 C 92 % 1009 hPa 0,0 l/m 0,0 km/h (0 Bft) S-SO 4,1 C 5,3 C
14.12.2023 01:00 5,5 C 92 % 1010 hPa 0,5 l/m 0,0 km/h (0 Bft) S-SO 4,3 C 5,5 C
14.12.2023 02:00 5,6 C 92 % 1010 hPa 0,0 l/m 0,0 km/h (0 Bft) N 4,4 C 5,6 C
14.12.2023 03:00 5,5 C 93 % 1011 hPa 0,0 l/m 0,0 km/h (0 Bft) N 4,4 C 5,5 C
14.12.2023 04:00 5,4 C 93 % 1012 hPa 0,5 l/m 0,0 km/h (0 Bft) N 4,4 C 5,4 C
14.12.2023 05:00 4,9 C 93 % 1013 hPa 0,0 l/m 5,5 km/h (1 Bft) N 3,9 C 4,1 C
14.12.2023 06:00 4,4 C 93 % 1014 hPa 0,0 l/m 3,4 km/h (1 Bft) N 3,4 C 3,4 C
14.12.2023 07:00 4,1 C 94 % 1015 hPa 0,0 l/m 2,4 km/h (1 Bft) N 3,2 C 3,9 C
14.12.2023 08:00 3,8 C 93 % 1016 hPa 0,0 l/m 2,3 km/h (1 Bft) N 2,9 C 3,8 C
14.12.2023 09:00 3,5 C 93 % 1017 hPa 0,5 l/m 2,7 km/h (1 Bft) N 2,5 C 3,3 C
14.12.2023 10:00 3,4 C 94 % 1018 hPa 0,5 l/m 1,0 km/h (0 Bft) N 2,5 C 3,4 C
14.12.2023 11:00 3,5 C 94 % 1019 hPa 0,0 l/m 0,9 km/h (0 Bft) N 2,6 C 3,5 C
14.12.2023 12:00 3,3 C 94 % 1019 hPa 0,0 l/m 2,5 km/h (1 Bft) N 2,5 C 2,8 C
14.12.2023 13:00 3,3 C 94 % 1020 hPa 0,0 l/m 0,0 km/h (0 Bft) N 2,4 C 3,3 C
14.12.2023 14:00 3,2 C 94 % 1021 hPa 0,0 l/m 0,4 km/h (0 Bft) N 2,3 C 3,2 C
14.12.2023 15:00 2,9 C 94 % 1022 hPa 0,0 l/m 0,0 km/h (0 Bft) N 2,0 C 2,9 C
14.12.2023 16:00 2,9 C 94 % 1023 hPa 0,0 l/m 0,0 km/h (0 Bft) NW 2,0 C 2,9 C
14.12.2023 17:00 2,8 C 94 % 1024 hPa 0,5 l/m 0,0 km/h (0 Bft) N-NO 1,9 C 2,8 C
14.12.2023 18:00 2,5 C 94 % 1025 hPa 0,5 l/m 0,3 km/h (0 Bft) N 1,7 C 2,5 C
14.12.2023 19:00 2,4 C 94 % 1026 hPa 0,0 l/m 0,0 km/h (0 Bft) NW 1,5 C 2,4 C
14.12.2023 20:00 2,4 C 94 % 1027 hPa 0,5 l/m 0,0 km/h (0 Bft) W-NW 1,5 C 2,4 C
14.12.2023 21:00 2,5 C 94 % 1027 hPa 0,0 l/m 0,0 km/h (0 Bft) W-NW 1,6 C 2,5 C
14.12.2023 22:00 2,5 C 94 % 1028 hPa 0,0 l/m 0,0 km/h (0 Bft) W-NW 1,6 C 2,5 C
14.12.2023 23:00 2,6 C 94 % 1029 hPa 0,0 l/m 0,0 km/h (0 Bft) W-NW 1,7 C 2,6 C
15.12.2023 00:00 2,5 C 94 % 1030 hPa 0,0 l/m 0,0 km/h (0 Bft) W-NW 1,7 C 2,5 C
15.12.2023 01:00 2,3 C 94 % 1031 hPa 0,0 l/m 0,0 km/h (0 Bft) W-NW 1,4 C 2,3 C
15.12.2023 02:00 2,1 C 94 % 1032 hPa 0,0 l/m 0,0 km/h (0 Bft) W-NW 1,2 C 2,1 C
15.12.2023 03:00 1,4 C 94 % 1033 hPa 0,0 l/m 0,0 km/h (0 Bft) W-NW 0,6 C 1,4 C
15.12.2023 04:00 0,4 C 94 % 1033 hPa 0,0 l/m 0,0 km/h (0 Bft) W -0,4 C 0,4 C
15.12.2023 05:00 -0,2 C 94 % 1034 hPa 0,0 l/m 0,0 km/h (0 Bft) W-SW -1,0 C -0,2 C
15.12.2023 06:00 -0,5 C 94 % 1034 hPa 0,0 l/m 0,0 km/h (0 Bft) W-SW -1,3 C -0,5 C
15.12.2023 07:00 -0,4 C 94 % 1034 hPa 0,0 l/m 0,0 km/h (0 Bft) W-SW -1,2 C -0,4 C
15.12.2023 08:00 -0,2 C 94 % 1035 hPa 0,0 l/m 0,0 km/h (0 Bft) W-SW -1,0 C -0,2 C
15.12.2023 09:00 0,3 C 94 % 1036 hPa 0,0 l/m 0,0 km/h (0 Bft) W-SW -0,6 C 0,3 C
15.12.2023 10:00 0,9 C 94 % 1036 hPa 0,0 l/m 0,0 km/h (0 Bft) W-SW 0,0 C 0,9 C
15.12.2023 11:00 1,6 C 94 % 1037 hPa 0,0 l/m 0,0 km/h (0 Bft) W-SW 0,8 C 1,6 C
15.12.2023 12:00 2,3 C 94 % 1038 hPa 0,0 l/m 0,0 km/h (0 Bft) W-SW 1,5 C 2,3 C
15.12.2023 13:00 3,3 C 94 % 1038 hPa 0,0 l/m 0,0 km/h (0 Bft) W-SW 2,5 C 3,3 C
15.12.2023 14:00 4,4 C 94 % 1038 hPa 0,0 l/m 0,0 km/h (0 Bft) W-SW 3,6 C 4,4 C
15.12.2023 15:00 4,7 C 94 % 1038 hPa 0,0 l/m 0,0 km/h (0 Bft) W-SW 3,8 C 4,7 C
15.12.2023 16:00 4,5 C 94 % 1039 hPa 0,0 l/m 0,0 km/h (0 Bft) W-SW 3,6 C 4,5 C
15.12.2023 17:00 4,1 C 94 % 1039 hPa 0,0 l/m 0,0 km/h (0 Bft) W-SW 3,2 C 4,1 C
15.12.2023 18:00 4,0 C 93 % 1040 hPa 0,0 l/m 0,0 km/h (0 Bft) W-SW 3,0 C 4,0 C
15.12.2023 19:00 4,3 C 93 % 1040 hPa 0,0 l/m 0,0 km/h (0 Bft) W-SW 3,3 C 4,3 C
15.12.2023 20:00 4,2 C 93 % 1041 hPa 0,0 l/m 0,0 km/h (0 Bft) W-SW 3,2 C 4,2 C
15.12.2023 21:00 4,0 C 93 % 1041 hPa 0,0 l/m 0,0 km/h (0 Bft) W-SW 3,0 C 4,0 C
15.12.2023 22:00 4,3 C 93 % 1041 hPa 0,0 l/m 0,0 km/h (0 Bft) W-SW 3,3 C 4,3 C
15.12.2023 23:00 4,7 C 93 % 1041 hPa 0,0 l/m 0,0 km/h (0 Bft) W-SW 3,7 C 4,7 C
16.12.2023 00:00 5,0 C 92 % 1042 hPa 0,0 l/m 0,0 km/h (0 Bft) W-SW 3,8 C 5,0 C
16.12.2023 01:00 4,8 C 91 % 1042 hPa 0,0 l/m 0,0 km/h (0 Bft) W-SW 3,5 C 4,8 C
16.12.2023 02:00 4,6 C 91 % 1042 hPa 0,0 l/m 0,0 km/h (0 Bft) W-SW 3,3 C 4,6 C
16.12.2023 03:00 4,5 C 90 % 1042 hPa 0,0 l/m 0,0 km/h (0 Bft) W-SW 3,0 C 4,5 C
16.12.2023 04:00 4,5 C 90 % 1042 hPa 0,0 l/m 0,0 km/h (0 Bft) W-SW 3,0 C 4,5 C
16.12.2023 05:00 4,6 C 90 % 1043 hPa 0,0 l/m 0,0 km/h (0 Bft) W-SW 3,1 C 4,6 C
16.12.2023 06:00 4,7 C 90 % 1043 hPa 0,0 l/m 0,0 km/h (0 Bft) W-SW 3,1 C 4,7 C
16.12.2023 07:00 4,8 C 89 % 1044 hPa 0,0 l/m 0,0 km/h (0 Bft) W-SW 3,1 C 4,8 C
16.12.2023 08:00 4,7 C 89 % 1044 hPa 0,0 l/m 0,0 km/h (0 Bft) W-SW 3,0 C 4,7 C
16.12.2023 09:00 5,2 C 88 % 1044 hPa 0,0 l/m 0,0 km/h (0 Bft) W-SW 3,4 C 5,2 C
16.12.2023 10:00 5,9 C 86 % 1044 hPa 0,0 l/m 0,0 km/h (0 Bft) W-SW 3,7 C 5,9 C
16.12.2023 11:00 6,5 C 83 % 1044 hPa 0,0 l/m 0,6 km/h (0 Bft) W-SW 3,8 C 6,4 C
16.12.2023 12:00 6,7 C 82 % 1043 hPa 0,0 l/m 0,0 km/h (0 Bft) W 3,8 C 6,7 C
16.12.2023 13:00 7,0 C 79 % 1042 hPa 0,0 l/m 1,4 km/h (1 Bft) W 3,6 C 6,9 C
16.12.2023 14:00 7,1 C 78 % 1041 hPa 0,0 l/m 0,6 km/h (0 Bft) W 3,6 C 7,1 C
16.12.2023 15:00 6,4 C 80 % 1041 hPa 0,0 l/m 0,4 km/h (0 Bft) W 3,1 C 6,4 C
16.12.2023 16:00 5,2 C 81 % 1041 hPa 0,0 l/m 0,4 km/h (0 Bft) W 2,2 C 5,2 C
16.12.2023 17:00 4,3 C 83 % 1041 hPa 0,0 l/m 0,0 km/h (0 Bft) S-SW 1,6 C 4,3 C
16.12.2023 18:00 4,6 C 84 % 1041 hPa 0,0 l/m 0,0 km/h (0 Bft) S-SW 2,1 C 4,6 C
16.12.2023 19:00 4,9 C 84 % 1042 hPa 0,0 l/m 0,0 km/h (0 Bft) W-SW 2,4 C 4,9 C
16.12.2023 20:00 5,0 C 84 % 1041 hPa 0,0 l/m 0,0 km/h (0 Bft) SW 2,6 C 5,0 C
16.12.2023 21:00 5,3 C 85 % 1042 hPa 0,0 l/m 0,0 km/h (0 Bft) W-SW 2,9 C 5,3 C
16.12.2023 22:00 5,3 C 85 % 1042 hPa 0,0 l/m 0,0 km/h (0 Bft) SW 3,0 C 5,3 C
16.12.2023 23:00 5,0 C 85 % 1042 hPa 0,0 l/m 0,0 km/h (0 Bft) W-SW 2,7 C 5,0 C
17.12.2023 00:00 4,0 C 86 % 1042 hPa 0,0 l/m 0,0 km/h (0 Bft) W 1,8 C 4,0 C
17.12.2023 01:00 3,1 C 87 % 1042 hPa 0,0 l/m 0,0 km/h (0 Bft) W-SW 1,1 C 3,1 C
17.12.2023 02:00 2,3 C 87 % 1042 hPa 0,0 l/m 0,0 km/h (0 Bft) W-SW 0,4 C 2,3 C
17.12.2023 03:00 1,8 C 88 % 1042 hPa 0,0 l/m 0,0 km/h (0 Bft) W-SW 0,0 C 1,8 C
17.12.2023 04:00 2,3 C 89 % 1041 hPa 0,0 l/m 0,0 km/h (0 Bft) W 0,7 C 2,3 C
17.12.2023 05:00 2,5 C 90 % 1041 hPa 0,0 l/m 0,0 km/h (0 Bft) SW 1,0 C 2,5 C
17.12.2023 06:00 1,9 C 90 % 1041 hPa 0,0 l/m 0,0 km/h (0 Bft) W 0,5 C 1,9 C
17.12.2023 07:00 1,2 C 90 % 1041 hPa 0,0 l/m 0,0 km/h (0 Bft) W -0,3 C 1,2 C
17.12.2023 08:00 0,5 C 90 % 1042 hPa 0,0 l/m 0,0 km/h (0 Bft) W -1,0 C 0,5 C
17.12.2023 09:00 1,5 C 91 % 1042 hPa 0,0 l/m 0,0 km/h (0 Bft) W 0,2 C 1,5 C
17.12.2023 10:00 3,2 C 91 % 1041 hPa 0,0 l/m 0,0 km/h (0 Bft) SW 1,9 C 3,2 C
17.12.2023 11:00 5,4 C 91 % 1041 hPa 0,0 l/m 0,0 km/h (0 Bft) W-SW 4,1 C 5,4 C
17.12.2023 12:00 7,1 C 90 % 1040 hPa 0,0 l/m 0,0 km/h (0 Bft) W 5,5 C 7,1 C
17.12.2023 13:00 7,7 C 87 % 1040 hPa 0,0 l/m 0,0 km/h (0 Bft) W-NW 5,8 C 7,7 C
17.12.2023 14:00 8,0 C 86 % 1039 hPa 0,0 l/m 0,0 km/h (0 Bft) W-NW 5,8 C 8,0 C
17.12.2023 15:00 7,1 C 85 % 1039 hPa 0,0 l/m 0,0 km/h (0 Bft) W-NW 4,7 C 7,1 C
17.12.2023 16:00 5,5 C 86 % 1039 hPa 0,0 l/m 0,0 km/h (0 Bft) W-NW 3,3 C 5,5 C
17.12.2023 17:00 4,6 C 87 % 1039 hPa 0,0 l/m 0,0 km/h (0 Bft) W-NW 2,6 C 4,6 C
17.12.2023 18:00 4,8 C 88 % 1039 hPa 0,0 l/m 0,0 km/h (0 Bft) W-NW 3,0 C 4,8 C
17.12.2023 19:00 5,0 C 88 % 1039 hPa 0,0 l/m 0,0 km/h (0 Bft) W-NW 3,2 C 5,0 C
17.12.2023 20:00 5,0 C 88 % 1039 hPa 0,0 l/m 0,0 km/h (0 Bft) N-NW 3,2 C 5,0 C
17.12.2023 21:00 4,4 C 88 % 1039 hPa 0,0 l/m 0,0 km/h (0 Bft) S-SW 2,6 C 4,4 C
17.12.2023 22:00 4,2 C 88 % 1039 hPa 0,0 l/m 0,2 km/h (0 Bft) W 2,3 C 4,2 C
17.12.2023 23:00 3,8 C 88 % 1039 hPa 0,0 l/m 0,3 km/h (0 Bft) S-SW 2,1 C 3,8 C
Min-Datum _ 15.12.23 16.12.23 13.12.23 - 17.12.23 - 15.12.23 14.12.23
_ Min-Zeit 06:40 14:15 16:00 - 23:00 - 06:40 06:05
Minimum _ -0,6 C 78 % 1004 hPa - 0,0 km/h (0 Bft) - -1,4 C -3,2 C
Max-Datum _ 11.12.23 15.12.23 16.12.23 13.12.23 11.12.23 - 13.12.23 11.12.23
_ Max-Zeit 14:15 18:35 10:10 02:05 15:55 - 13:45 14:15
Maximum _ 10,0 C 94 % 1045 hPa 1,0 l/m 21,6 km/h
W (4 Bft)
- 8,2 C 10,0 C
Durchschnitt _ 5,3 C 89 % 1023 hPa #5,2 l/m 0,4 km/h (0 Bft) W-SW 3,6 C 5,2 C